Time;durP1;ratioP1;P1;durP2;ratioP2;P2;SDS_P1;SDS_P2;PMS_P1;PMS_P2;Temp;Humidity;BMP_temperature;BMP_pressure;BME280_temperature;BME280_humidity;BME280_pressure;Samples;Min_cycle;Max_cycle;Signal;HPM_P1;HPM_P2
2023/03/27 00:01:29;;;;;;;11.70;7.50;;;;;;;17.45;37.80;98774.30;108225;1253;61366;-67
2023/03/27 00:04:00;;;;;;;11.10;7.30;;;;;;;17.24;38.18;98772.77;108221;1252;60528;-65
2023/03/27 00:06:33;;;;;;;14.90;8.60;;;;;;;17.16;38.32;98769.66;108277;1255;73103;-64
2023/03/27 00:09:02;;;;;;;18.60;9.80;;;;;;;17.17;38.47;98770.11;108234;1252;70636;-66
2023/03/27 00:11:31;;;;;;;17.00;10.10;;;;;;;17.32;38.25;98775.05;108226;1252;73749;-64
2023/03/27 00:14:03;;;;;;;19.30;10.50;;;;;;;17.30;38.29;98777.35;108198;1253;62083;-65
2023/03/27 00:16:31;;;;;;;17.40;10.60;;;;;;;17.24;38.31;98775.56;108186;1253;61685;-63
2023/03/27 00:18:59;;;;;;;19.10;11.40;;;;;;;17.38;38.03;98776.37;108269;1253;75142;-62
2023/03/27 00:21:34;;;;;;;20.10;11.10;;;;;;;17.48;37.86;98772.13;108240;1253;68230;-63
2023/03/27 00:24:02;;;;;;;21.30;12.20;;;;;;;17.62;37.51;98767.80;108205;1253;72938;-65
2023/03/27 00:26:31;;;;;;;19.90;11.20;;;;;;;17.67;37.54;98766.36;108237;1253;62124;-63
2023/03/27 00:29:03;;;;;;;18.20;11.90;;;;;;;17.57;37.58;98764.90;108043;1257;61252;-64
2023/03/27 00:31:35;;;;;;;17.80;10.50;;;;;;;17.77;37.39;98771.52;108164;1252;72820;-65
2023/03/27 00:34:03;;;;;;;16.30;9.90;;;;;;;17.86;37.24;98771.63;108199;1253;70698;-63
2023/03/27 00:36:32;;;;;;;20.20;11.00;;;;;;;17.69;37.51;98775.73;108190;1253;71837;-64
2023/03/27 00:39:01;;;;;;;18.10;10.70;;;;;;;17.67;37.49;98770.42;108172;1253;61899;-65
2023/03/27 00:41:29;;;;;;;15.90;10.60;;;;;;;17.82;37.24;98769.33;108204;1253;60444;-63
2023/03/27 00:43:58;;;;;;;22.30;11.80;;;;;;;17.48;37.59;98769.27;108223;1253;74079;-65
2023/03/27 00:46:42;;;;;;;20.80;10.70;;;;;;;17.49;37.61;98766.52;108045;1253;69230;-64
2023/03/27 00:49:11;;;;;;;16.80;10.60;;;;;;;17.51;37.56;98768.29;108033;1253;74159;-66
2023/03/27 00:51:40;;;;;;;21.20;10.70;;;;;;;17.48;37.49;98767.67;108022;1253;61267;-64
2023/03/27 00:54:09;;;;;;;15.20;9.70;;;;;;;17.14;38.03;98770.23;108115;1252;60377;-66
2023/03/27 00:56:39;;;;;;;16.60;10.40;;;;;;;17.25;37.99;98775.71;108052;1253;74034;-65
2023/03/27 00:59:09;;;;;;;17.00;9.70;;;;;;;17.25;38.06;98772.27;108244;1252;70577;-64
2023/03/27 01:01:38;;;;;;;14.70;9.90;;;;;;;17.28;38.10;98767.84;108356;1251;73591;-66
2023/03/27 01:04:07;;;;;;;17.50;10.90;;;;;;;17.13;38.19;98772.11;108179;1251;61855;-64
2023/03/27 01:06:36;;;;;;;22.90;11.60;;;;;;;17.16;38.05;98774.63;108264;1253;61306;-66
2023/03/27 01:09:08;;;;;;;20.10;11.90;;;;;;;17.19;38.14;98780.83;108260;1251;73145;-64
2023/03/27 01:11:53;;;;;;;19.00;10.00;;;;;;;17.32;37.95;98780.53;108307;1253;71316;-65
2023/03/27 01:14:36;;;;;;;22.00;10.90;;;;;;;17.46;37.74;98775.84;108298;1252;73893;-65
2023/03/27 01:17:29;;;;;;;23.80;12.90;;;;;;;17.56;37.52;98776.39;108310;1252;62407;-64
2023/03/27 01:20:26;;;;;;;23.30;13.30;;;;;;;17.48;37.52;98776.02;108362;1252;61213;-66
2023/03/27 01:23:16;;;;;;;27.60;12.80;;;;;;;17.49;37.61;98780.73;108298;1253;74081;-65
2023/03/27 01:26:13;;;;;;;23.30;12.70;;;;;;;17.44;37.81;98779.86;108194;1253;70612;-65
2023/03/27 01:29:17;;;;;;;26.00;13.90;;;;;;;17.38;37.79;98779.48;108248;1253;73682;-65
2023/03/27 01:31:57;;;;;;;23.50;13.50;;;;;;;17.05;38.54;98782.02;108267;1251;62192;-65
2023/03/27 01:34:40;;;;;;;24.10;12.00;;;;;;;16.67;39.12;98783.07;108264;1251;61343;-64
2023/03/27 01:37:46;;;;;;;28.00;13.10;;;;;;;16.96;38.56;98780.21;108197;1251;74772;-65
2023/03/27 01:40:24;;;;;;;24.10;12.50;;;;;;;17.42;37.75;98780.44;108224;1251;69825;-64
2023/03/27 01:43:03;;;;;;;23.60;11.10;;;;;;;17.32;37.79;98780.40;108290;1251;73859;-64
2023/03/27 01:45:41;;;;;;;20.00;11.00;;;;;;;17.29;37.78;98782.77;108321;1253;62087;-65
2023/03/27 01:48:13;;;;;;;20.10;10.10;;;;;;;17.21;37.89;98778.35;108316;1252;61061;-65
2023/03/27 01:50:47;;;;;;;22.90;10.90;;;;;;;17.12;37.96;98775.20;108189;1252;75035;-65
2023/03/27 01:53:33;;;;;;;21.50;12.60;;;;;;;17.18;37.76;98775.00;108206;1251;70612;-65
2023/03/27 01:56:12;;;;;;;20.50;11.10;;;;;;;17.11;37.79;98779.36;108141;1253;72861;-66
2023/03/27 01:58:45;;;;;;;16.60;10.00;;;;;;;16.13;39.42;98789.64;108206;1253;60438;-65
2023/03/27 02:01:16;;;;;;;20.80;11.10;;;;;;;16.35;39.23;98790.29;108285;1253;60456;-67
2023/03/27 02:03:50;;;;;;;17.20;10.50;;;;;;;16.63;38.76;98786.00;108216;1254;75129;-65
2023/03/27 02:06:22;;;;;;;18.30;11.00;;;;;;;16.59;38.71;98779.80;108333;1253;70071;-64
2023/03/27 02:09:16;;;;;;;21.60;11.90;;;;;;;16.50;38.74;98773.81;108048;1251;73882;-66
2023/03/27 02:11:56;;;;;;;21.60;11.10;;;;;;;16.65;38.42;98769.03;108316;1256;61004;-65
2023/03/27 02:14:29;;;;;;;17.00;9.00;;;;;;;16.82;37.97;98775.42;107993;1251;61371;-64
2023/03/27 02:17:00;;;;;;;16.00;10.20;;;;;;;16.56;38.22;98782.34;108199;1253;74543;-65
2023/03/27 02:19:34;;;;;;;13.60;7.80;;;;;;;16.57;38.18;98786.52;108344;1251;69989;-65
2023/03/27 02:22:02;;;;;;;14.20;8.80;;;;;;;16.69;38.01;98789.42;108208;1253;72689;-67
2023/03/27 02:24:42;;;;;;;16.00;8.90;;;;;;;16.85;37.72;98789.52;108173;1258;61456;-66
2023/03/27 02:27:20;;;;;;;12.20;7.90;;;;;;;16.77;37.58;98791.98;108186;1251;61227;-65
2023/03/27 02:30:09;;;;;;;12.60;8.90;;;;;;;16.84;37.52;98791.70;108120;1253;72879;-65
2023/03/27 02:33:16;;;;;;;15.10;8.70;;;;;;;16.87;37.26;98792.05;108206;1253;70407;-67
2023/03/27 02:35:50;;;;;;;12.80;7.60;;;;;;;16.78;37.51;98794.85;108206;1252;73703;-65
2023/03/27 02:38:37;;;;;;;12.60;7.30;;;;;;;16.82;37.46;98798.27;108069;1252;61530;-67
2023/03/27 02:41:39;;;;;;;17.00;8.60;;;;;;;16.77;37.46;98800.65;108106;1251;61211;-66
2023/03/27 02:44:51;;;;;;;15.10;9.00;;;;;;;16.88;37.25;98803.80;108110;1255;73942;-65
2023/03/27 02:47:27;;;;;;;12.10;7.00;;;;;;;16.90;37.24;98800.77;108253;1251;71617;-65
2023/03/27 02:50:04;;;;;;;13.50;8.00;;;;;;;16.59;37.67;98806.20;108371;1251;72880;-65
2023/03/27 02:52:41;;;;;;;13.50;7.50;;;;;;;16.65;37.51;98805.73;108293;1253;60934;-67
2023/03/27 02:55:32;;;;;;;12.50;8.20;;;;;;;16.03;38.33;98810.58;108208;1251;60501;-66
2023/03/27 02:58:04;;;;;;;10.70;7.10;;;;;;;15.39;39.39;98814.59;108399;1251;72692;-66
2023/03/27 03:00:50;;;;;;;12.10;7.90;;;;;;;15.51;39.24;98821.24;108374;1252;70746;-66
2023/03/27 03:04:02;;;;;;;14.40;8.30;;;;;;;15.69;38.97;98829.55;108273;1253;73830;-66
2023/03/27 03:06:44;;;;;;;13.10;8.00;;;;;;;15.63;39.04;98834.48;108227;1251;60404;-63
2023/03/27 03:09:13;;;;;;;13.40;8.60;;;;;;;15.61;38.95;98833.88;108199;1251;60444;-66
2023/03/27 03:11:47;;;;;;;14.20;8.20;;;;;;;15.67;38.82;98838.39;108237;1256;74004;-66
2023/03/27 03:14:20;;;;;;;13.40;8.20;;;;;;;15.87;38.38;98837.58;107975;1252;70936;-65
2023/03/27 03:16:48;;;;;;;10.60;7.90;;;;;;;16.00;38.17;98841.48;108200;1253;72873;-65
2023/03/27 03:19:24;;;;;;;12.70;8.30;;;;;;;15.94;38.42;98843.16;108270;1252;61836;-65
2023/03/27 03:21:53;;;;;;;12.60;8.20;;;;;;;15.98;38.51;98842.28;108365;1251;60685;-63
2023/03/27 03:24:21;;;;;;;10.80;7.30;;;;;;;15.75;38.73;98846.29;108330;1251;74635;-64
2023/03/27 03:26:53;;;;;;;10.90;7.30;;;;;;;15.51;39.20;98850.08;108329;1253;70425;-66
2023/03/27 03:29:21;;;;;;;15.10;9.10;;;;;;;15.58;39.11;98851.77;108200;1256;72001;-65
2023/03/27 03:32:00;;;;;;;13.60;8.70;;;;;;;15.33;39.41;98857.48;108211;1253;61139;-66
2023/03/27 03:34:29;;;;;;;15.20;8.80;;;;;;;15.42;39.30;98852.19;108293;1251;60294;-65
2023/03/27 03:36:58;;;;;;;18.70;10.10;;;;;;;15.57;39.07;98854.71;108383;1251;73140;-67
2023/03/27 03:39:31;;;;;;;15.10;10.40;;;;;;;15.91;38.53;98859.20;108370;1251;70349;-65
2023/03/27 03:42:01;;;;;;;19.00;9.20;;;;;;;16.31;37.89;98856.01;108284;1251;74201;-64
2023/03/27 03:44:30;;;;;;;16.00;9.30;;;;;;;16.28;38.01;98860.86;108224;1252;60933;-65
2023/03/27 03:47:00;;;;;;;13.20;8.40;;;;;;;15.94;38.48;98861.95;108355;1253;61427;-66
2023/03/27 03:49:28;;;;;;;15.70;10.50;;;;;;;16.04;38.30;98863.77;108139;1254;73890;-66
2023/03/27 03:51:57;;;;;;;13.90;10.00;;;;;;;16.09;38.33;98864.80;108227;1253;71506;-66
2023/03/27 03:54:32;;;;;;;16.20;9.80;;;;;;;16.10;38.29;98867.23;108313;1253;72689;-65
2023/03/27 03:57:01;;;;;;;18.10;10.80;;;;;;;16.26;38.10;98867.52;108328;1252;62560;-66
2023/03/27 03:59:31;;;;;;;20.20;11.30;;;;;;;16.16;38.25;98870.85;108275;1251;61215;-65
2023/03/27 04:02:28;;;;;;;17.60;10.40;;;;;;;16.16;38.28;98873.52;108302;1254;73668;-66
2023/03/27 04:05:09;;;;;;;24.70;14.60;;;;;;;15.96;38.59;98873.46;108359;1256;70885;-65
2023/03/27 04:07:41;;;;;;;18.70;11.00;;;;;;;15.76;38.87;98873.10;108228;1256;73929;-66
2023/03/27 04:10:40;;;;;;;12.80;8.10;;;;;;;15.90;38.88;98877.64;108280;1251;62223;-67
2023/03/27 04:13:20;;;;;;;16.20;9.10;;;;;;;15.82;39.09;98875.91;108230;1251;60827;-66
2023/03/27 04:16:14;;;;;;;14.60;9.70;;;;;;;15.58;39.62;98875.52;108093;1253;74920;-66
2023/03/27 04:18:54;;;;;;;12.20;8.30;;;;;;;15.38;40.48;98881.34;108194;1253;71427;-65
2023/03/27 04:21:25;;;;;;;13.40;8.50;;;;;;;15.51;40.69;98884.94;108209;1253;71183;-65
2023/03/27 04:24:01;;;;;;;16.40;9.10;;;;;;;15.52;40.53;98886.73;108264;1253;60703;-65
2023/03/27 04:26:42;;;;;;;14.20;8.40;;;;;;;15.46;40.55;98888.46;108320;1252;60473;-65
2023/03/27 04:29:30;;;;;;;14.70;8.60;;;;;;;15.48;40.68;98886.59;108284;1251;75042;-66
2023/03/27 04:31:59;;;;;;;18.50;12.70;;;;;;;15.52;40.76;98883.11;108322;1256;70052;-66
2023/03/27 04:34:48;;;;;;;15.80;11.00;;;;;;;16.21;41.37;98881.22;108285;1254;72845;-65
2023/03/27 04:37:27;;;;;;;;;;;;;;;17.35;41.49;98882.82;108169;1252;62354;-67
2023/03/27 04:40:04;;;;;;;17.40;11.00;;;;;;;18.38;41.09;98879.02;108171;1252;60516;-64
2023/03/27 04:42:41;;;;;;;13.50;8.60;;;;;;;19.73;39.76;98874.73;108298;1251;73644;-66
2023/03/27 04:45:11;;;;;;;10.30;7.60;;;;;;;20.80;38.74;98876.31;108046;1252;69918;-66
2023/03/27 04:47:45;;;;;;;10.20;6.80;;;;;;;21.68;37.83;98874.59;108307;1256;73420;-69
2023/03/27 04:50:14;;;;;;;11.40;7.80;;;;;;;22.34;36.88;98872.84;108131;1258;61569;-63
2023/03/27 04:52:42;;;;;;;11.10;7.00;;;;;;;23.13;36.16;98867.98;108337;1251;61229;-66
2023/03/27 04:55:11;;;;;;;10.60;6.20;;;;;;;23.86;35.23;98863.33;108179;1253;73888;-67
2023/03/27 04:57:45;;;;;;;12.20;7.70;;;;;;;24.53;34.46;98865.95;108194;1253;71031;-66
2023/03/27 05:00:18;;;;;;;11.90;7.70;;;;;;;25.13;33.37;98865.10;108143;1252;72222;-67
2023/03/27 05:02:47;;;;;;;12.10;7.20;;;;;;;25.56;32.18;98861.77;108242;1252;62775;-67
2023/03/27 05:05:20;;;;;;;11.20;7.70;;;;;;;25.41;31.65;98860.42;107697;1257;485679;-68
2023/03/27 05:08:28;;;;;;;11.70;8.30;;;;;;;21.85;37.14;98868.33;104981;1289;600959;-67
2023/03/27 05:10:57;;;;;;;10.70;7.30;;;;;;;23.95;34.03;98870.17;107283;1265;62839;-65
2023/03/27 05:13:29;;;;;;;9.70;6.70;;;;;;;24.83;32.77;98877.44;107350;1266;59374;-67
2023/03/27 05:16:00;;;;;;;9.70;7.40;;;;;;;25.30;31.73;98886.55;107245;1265;71942;-67
2023/03/27 05:18:30;;;;;;;9.90;6.60;;;;;;;25.46;31.16;98883.99;107180;1267;71806;-66
2023/03/27 05:21:04;;;;;;;9.90;6.70;;;;;;;25.97;30.54;98882.39;107051;1265;202448;-68
2023/03/27 05:23:33;;;;;;;11.20;6.70;;;;;;;26.43;30.09;98881.92;107437;1263;60184;-68
2023/03/27 05:26:02;;;;;;;11.20;5.70;;;;;;;27.06;29.20;98881.93;107336;1262;59315;-67
2023/03/27 05:28:47;;;;;;;9.90;5.50;;;;;;;27.54;28.09;98878.70;107376;1263;71759;-66
2023/03/27 05:31:16;;;;;;;7.20;5.10;;;;;;;28.14;27.09;98877.35;107396;1263;71297;-68
2023/03/27 05:33:53;;;;;;;7.60;5.00;;;;;;;28.50;26.59;98874.60;107417;1263;72890;-68
2023/03/27 05:36:22;;;;;;;7.30;4.50;;;;;;;29.11;26.31;98879.71;107390;1263;60102;-69
2023/03/27 05:38:51;;;;;;;5.70;4.00;;;;;;;29.56;25.47;98885.75;107360;1263;61228;-67
2023/03/27 05:41:42;;;;;;;6.50;4.00;;;;;;;29.97;24.82;98884.83;107421;1262;72578;-68
2023/03/27 05:44:11;;;;;;;5.20;3.90;;;;;;;30.25;24.03;98887.56;107338;1263;70442;-68
2023/03/27 05:46:41;;;;;;;5.70;3.60;;;;;;;30.13;23.65;98891.67;107408;1266;71810;-69
2023/03/27 05:49:19;;;;;;;5.60;3.40;;;;;;;29.75;23.33;98895.52;107454;1262;60328;-66
2023/03/27 05:51:51;;;;;;;5.70;3.80;;;;;;;29.36;23.93;98895.85;107405;1262;59554;-68
2023/03/27 05:54:21;;;;;;;;;;;;;;;29.00;23.91;98898.21;107484;1263;74268;-66
2023/03/27 05:57:09;;;;;;;5.90;4.00;;;;;;;28.75;24.23;98892.35;107483;1264;71600;-68
2023/03/27 05:59:42;;;;;;;7.50;3.70;;;;;;;28.75;24.08;98893.06;107459;1264;73407;-67
2023/03/27 06:02:17;;;;;;;4.60;3.20;;;;;;;28.79;24.57;98891.23;107394;1263;60055;-67
2023/03/27 06:05:03;;;;;;;5.80;3.50;;;;;;;29.35;24.07;98893.52;107427;1262;60070;-66
2023/03/27 06:07:39;;;;;;;6.00;3.10;;;;;;;29.67;23.75;98892.52;107515;1263;74355;-66
2023/03/27 06:10:11;;;;;;;5.30;3.10;;;;;;;29.93;23.24;98889.60;107444;1263;71205;-68
2023/03/27 06:13:07;;;;;;;4.50;3.00;;;;;;;30.34;23.29;98888.74;107520;1264;73882;-66
2023/03/27 06:15:45;;;;;;;5.30;3.40;;;;;;;30.77;22.54;98881.44;107524;1262;61582;-66
2023/03/27 06:18:37;;;;;;;4.30;2.90;;;;;;;31.12;22.32;98879.94;107507;1262;61573;-67
2023/03/27 06:21:07;;;;;;;3.70;2.60;;;;;;;31.15;21.66;98883.09;107410;1262;74587;-68
2023/03/27 06:23:36;;;;;;;4.30;2.60;;;;;;;31.00;21.80;98886.51;107493;1263;69839;-69
2023/03/27 06:26:10;;;;;;;3.40;2.70;;;;;;;31.40;21.62;98890.99;107442;1262;73466;-70
2023/03/27 06:28:41;;;;;;;;;;;;;;;31.62;21.00;98888.02;107498;1266;61703;-68
2023/03/27 06:31:10;;;;;;;5.60;3.30;;;;;;;31.43;21.18;98890.35;107524;1263;61053;-68
2023/03/27 06:33:47;;;;;;;5.90;3.30;;;;;;;31.54;21.08;98894.06;107464;1263;74240;-68
2023/03/27 06:36:36;;;;;;;4.90;3.20;;;;;;;31.75;20.64;98892.98;107394;1262;70634;-66
2023/03/27 06:39:07;;;;;;;5.80;3.10;;;;;;;31.88;20.52;98888.42;108257;1251;73063;-70
2023/03/27 06:41:35;;;;;;;4.50;2.90;;;;;;;31.42;20.97;98895.09;108210;1251;59442;-67
2023/03/27 06:44:06;;;;;;;8.80;3.00;;;;;;;31.69;20.81;98894.81;108243;1251;60260;-68
2023/03/27 06:46:47;;;;;;;6.00;2.60;;;;;;;31.94;20.54;98893.10;108202;1256;74343;-69
2023/03/27 06:49:34;;;;;;;4.30;2.70;;;;;;;32.17;20.22;98889.73;108245;1251;71238;-69
2023/03/27 06:52:10;;;;;;;4.10;2.70;;;;;;;32.44;19.67;98893.68;108128;1251;73673;-68
2023/03/27 06:54:39;;;;;;;5.10;2.80;;;;;;;32.61;19.79;98891.55;108192;1250;60692;-67
2023/03/27 06:57:07;;;;;;;3.20;2.40;;;;;;;32.77;19.72;98893.90;108214;1252;61543;-67
2023/03/27 06:59:56;;;;;;;4.70;3.10;;;;;;;32.88;19.47;98891.95;108283;1256;74010;-68
2023/03/27 07:02:41;;;;;;;4.30;2.40;;;;;;;32.77;19.28;98893.68;108169;1253;70610;-68
2023/03/27 07:05:39;;;;;;;3.10;2.60;;;;;;;32.68;19.69;98891.75;108272;1252;72885;-67
2023/03/27 07:08:12;;;;;;;3.10;2.20;;;;;;;32.48;19.60;98899.21;108059;1252;59877;-69
2023/03/27 07:10:45;;;;;;;4.30;2.70;;;;;;;32.16;19.75;98900.59;108035;1253;61235;-69
2023/03/27 07:13:34;;;;;;;4.20;2.70;;;;;;;32.34;19.73;98899.80;108038;1252;72693;-69
2023/03/27 07:16:05;;;;;;;5.00;2.50;;;;;;;32.44;19.57;98904.50;108030;1252;71385;-67
2023/03/27 07:18:35;;;;;;;10.50;2.00;;;;;;;32.43;19.35;98902.41;108275;1253;71978;-67
2023/03/27 07:21:04;;;;;;;2.60;2.00;;;;;;;32.24;19.02;98906.48;108268;1252;61296;-67
2023/03/27 07:23:33;;;;;;;3.60;2.50;;;;;;;32.01;19.49;98906.23;108312;1252;59516;-69
2023/03/27 07:26:03;;;;;;;4.80;2.30;;;;;;;31.93;19.61;98909.70;108211;1256;74272;-68
2023/03/27 07:28:50;;;;;;;2.90;2.20;;;;;;;31.58;19.26;98905.19;108207;1253;70598;-68
2023/03/27 07:31:19;;;;;;;3.50;2.20;;;;;;;31.11;19.78;98907.39;108244;1252;71837;-69
2023/03/27 07:34:08;;;;;;;3.40;2.20;;;;;;;31.53;19.62;98904.20;108211;1252;60817;-69
2023/03/27 07:37:08;;;;;;;3.60;2.20;;;;;;;32.28;19.54;98900.05;107848;1252;61263;-67
2023/03/27 07:39:40;;;;;;;4.90;2.20;;;;;;;33.26;18.79;98897.58;108047;1252;74295;-67
2023/03/27 07:42:09;;;;;;;3.60;2.30;;;;;;;33.91;18.53;98899.94;108094;1252;69456;-68
2023/03/27 07:44:52;;;;;;;4.60;2.40;;;;;;;34.16;17.99;98898.49;108185;1252;73065;-68
2023/03/27 07:47:20;;;;;;;4.10;2.20;;;;;;;34.26;17.95;98906.45;108077;1253;61116;-68
2023/03/27 07:49:48;;;;;;;4.40;2.70;;;;;;;34.84;17.52;98898.23;108123;1252;60263;-68
2023/03/27 07:52:17;;;;;;;3.90;2.20;;;;;;;34.91;17.40;98897.21;108196;1256;65377;-69
2023/03/27 07:54:51;;;;;;;6.40;2.20;;;;;;;34.51;17.18;98903.70;108304;1251;62565;-68
2023/03/27 07:57:22;;;;;;;3.60;2.10;;;;;;;34.73;16.99;98898.80;108160;1251;73596;-68
2023/03/27 07:59:56;;;;;;;4.00;2.50;;;;;;;35.00;17.00;98896.99;108237;1251;59634;-68
2023/03/27 08:02:44;;;;;;;4.80;3.10;;;;;;;35.29;16.85;98896.65;108338;1252;59535;-69
2023/03/27 08:05:13;;;;;;;7.60;3.80;;;;;;;35.19;16.80;98893.14;108263;1251;73019;-68
2023/03/27 08:07:46;;;;;;;6.50;3.60;;;;;;;34.87;16.79;98893.05;108275;1251;62368;-67
2023/03/27 08:10:26;;;;;;;3.80;2.50;;;;;;;34.72;16.94;98890.13;108272;1256;65219;-70
2023/03/27 08:13:00;;;;;;;5.20;2.50;;;;;;;34.62;17.03;98889.63;108317;1251;60826;-70
2023/03/27 08:15:28;;;;;;;4.40;2.20;;;;;;;34.59;16.78;98891.35;108273;1251;61260;-68
2023/03/27 08:17:58;;;;;;;3.60;2.00;;;;;;;34.86;16.53;98885.52;108230;1251;73240;-68
2023/03/27 08:20:29;;;;;;;4.80;2.00;;;;;;;35.20;16.24;98886.25;108278;1251;62812;-67
2023/03/27 08:22:59;;;;;;;3.30;2.10;;;;;;;34.97;16.41;98885.52;108296;1251;65168;-69
2023/03/27 08:25:32;;;;;;;3.90;2.20;;;;;;;35.03;16.52;98879.70;108263;1251;61050;-69
2023/03/27 08:28:01;;;;;;;3.50;2.20;;;;;;;35.16;16.25;98885.98;108289;1251;59633;-69
2023/03/27 08:30:30;;;;;;;5.20;2.80;;;;;;;34.84;16.11;98888.67;108237;1250;74577;-67
2023/03/27 08:32:59;;;;;;;11.00;3.10;;;;;;;35.04;16.38;98887.05;108168;1251;62628;-67
2023/03/27 08:35:27;;;;;;;8.80;2.60;;;;;;;34.62;16.45;98887.08;108199;1251;73530;-69
2023/03/27 08:37:56;;;;;;;5.80;2.70;;;;;;;34.31;16.93;98891.09;108268;1251;60143;-69
2023/03/27 08:40:57;;;;;;;4.90;2.50;;;;;;;33.96;16.75;98889.83;108075;1251;61750;-68
2023/03/27 08:43:41;;;;;;;6.00;3.20;;;;;;;33.76;16.70;98892.10;108279;1251;73440;-67
2023/03/27 08:46:22;;;;;;;5.80;3.30;;;;;;;33.20;17.22;98888.16;108215;1251;71660;-68
2023/03/27 08:48:56;;;;;;;6.20;3.10;;;;;;;32.79;17.70;98887.30;108310;1251;73121;-68
2023/03/27 08:51:46;;;;;;;4.30;2.90;;;;;;;31.70;18.31;98896.44;108247;1251;60576;-68
2023/03/27 08:54:17;;;;;;;6.30;3.30;;;;;;;31.21;18.83;98897.36;108258;1253;61637;-69
2023/03/27 08:56:47;;;;;;;8.30;3.60;;;;;;;30.98;19.01;98895.38;108113;1259;73190;-69
2023/03/27 08:59:18;;;;;;;6.40;3.80;;;;;;;31.29;19.10;98894.89;108116;1252;72049;-67
2023/03/27 09:02:05;;;;;;;8.80;4.10;;;;;;;31.61;18.80;98892.27;108109;1253;73635;-69
2023/03/27 09:04:37;;;;;;;6.10;3.60;;;;;;;32.74;18.27;98882.47;108088;1258;59485;-68
2023/03/27 09:07:12;;;;;;;7.40;4.50;;;;;;;33.00;18.01;98882.62;108081;1252;61395;-69
2023/03/27 09:10:09;;;;;;;7.90;4.40;;;;;;;33.16;17.84;98881.19;108094;1253;74220;-68
2023/03/27 09:13:06;;;;;;;6.10;4.20;;;;;;;33.87;17.21;98879.94;108167;1253;70721;-68
2023/03/27 09:15:57;;;;;;;6.20;3.60;;;;;;;34.30;16.77;98878.58;108246;1253;74080;-68
2023/03/27 09:18:26;;;;;;;6.60;3.10;;;;;;;33.50;17.21;98878.77;108151;1253;59510;-69
2023/03/27 09:20:58;;;;;;;8.10;3.50;;;;;;;32.76;17.64;98880.65;108209;1256;60139;-66
2023/03/27 09:23:30;;;;;;;;;;;;;;;32.41;18.04;98878.02;108150;1253;72547;-66
2023/03/27 09:26:22;;;;;;;6.70;4.10;;;;;;;32.74;17.92;98880.63;108252;1252;71437;-68
2023/03/27 09:29:04;;;;;;;10.90;3.50;;;;;;;33.53;17.44;98877.79;108118;1253;73645;-68
2023/03/27 09:31:45;;;;;;;7.20;3.00;;;;;;;34.40;16.92;98878.87;108200;1252;61558;-69
2023/03/27 09:34:16;;;;;;;6.10;3.00;;;;;;;34.23;16.96;98881.17;108100;1253;59467;-69
2023/03/27 09:36:48;;;;;;;5.40;3.20;;;;;;;34.45;16.81;98875.42;108232;1253;74752;-67
2023/03/27 09:39:21;;;;;;;7.40;3.20;;;;;;;33.84;17.03;98878.64;108081;1253;69197;-68
2023/03/27 09:41:57;;;;;;;4.80;3.00;;;;;;;32.59;17.98;98876.02;108013;1253;73523;-69
2023/03/27 09:44:35;;;;;;;4.70;2.80;;;;;;;32.66;18.12;98875.98;108116;1253;61249;-69
2023/03/27 09:47:08;;;;;;;3.50;2.40;;;;;;;33.15;17.96;98876.95;108131;1252;61197;-71
2023/03/27 09:49:37;;;;;;;4.60;3.00;;;;;;;33.76;17.41;98876.48;108052;1258;73871;-68
2023/03/27 09:52:07;;;;;;;7.10;3.30;;;;;;;33.21;17.75;98878.14;108081;1253;69878;-69
2023/03/27 09:54:51;;;;;;;7.80;2.90;;;;;;;33.76;17.40;98879.38;108126;1251;73537;-67
2023/03/27 09:57:21;;;;;;;6.10;3.20;;;;;;;34.03;17.27;98879.83;108241;1251;60568;-68
2023/03/27 10:00:19;;;;;;;6.10;2.70;;;;;;;34.04;17.34;98877.02;108254;1251;60358;-68
2023/03/27 10:03:06;;;;;;;7.00;2.70;;;;;;;34.82;16.86;98866.24;108194;1251;66358;-69
2023/03/27 10:05:37;;;;;;;8.20;2.70;;;;;;;35.24;16.45;98864.38;108286;1251;62749;-67
2023/03/27 10:08:30;;;;;;;5.00;2.60;;;;;;;35.30;16.33;98856.88;108312;1255;64998;-69
2023/03/27 10:11:07;;;;;;;4.50;2.40;;;;;;;35.01;16.35;98852.69;108193;1251;60363;-69
2023/03/27 10:13:56;;;;;;;5.70;2.80;;;;;;;34.56;16.48;98861.38;108222;1251;60536;-69
2023/03/27 10:16:26;;;;;;;4.90;2.60;;;;;;;34.50;16.70;98862.23;108185;1251;66207;-69
2023/03/27 10:19:05;;;;;;;3.90;2.80;;;;;;;34.55;16.78;98859.94;108273;1251;61353;-70
2023/03/27 10:21:41;;;;;;;4.60;2.40;;;;;;;34.18;17.10;98858.92;108306;1251;64224;-70
2023/03/27 10:24:30;;;;;;;4.50;2.20;;;;;;;33.33;17.03;98861.19;108155;1251;60847;-70
2023/03/27 10:27:23;;;;;;;4.50;2.00;;;;;;;32.73;17.14;98862.20;108308;1251;61309;-69
2023/03/27 10:30:27;;;;;;;6.50;3.00;;;;;;;31.67;17.78;98860.40;108119;1257;73820;-68
2023/03/27 10:33:01;;;;;;;7.50;2.90;;;;;;;31.86;18.24;98859.77;108317;1251;70251;-70
2023/03/27 10:35:49;;;;;;;5.90;2.80;;;;;;;32.41;18.05;98852.39;108383;1251;72509;-68
2023/03/27 10:38:24;;;;;;;3.50;2.10;;;;;;;32.00;18.57;98857.88;108185;1251;61137;-67
2023/03/27 10:41:16;;;;;;;3.80;2.00;;;;;;;31.54;18.33;98859.27;108311;1251;60360;-70
2023/03/27 10:43:57;;;;;;;6.50;2.00;;;;;;;30.56;18.86;98860.91;108368;1251;73376;-70
2023/03/27 10:46:27;;;;;;;6.30;1.80;;;;;;;30.59;18.79;98855.83;108421;1251;70439;-68
2023/03/27 10:49:11;;;;;;;3.80;1.80;;;;;;;30.96;18.73;98855.46;108245;1253;73691;-69
2023/03/27 10:51:46;;;;;;;3.50;2.00;;;;;;;30.29;19.00;98854.82;108346;1253;61531;-68
2023/03/27 10:54:36;;;;;;;2.70;2.10;;;;;;;29.39;19.90;98859.11;108673;1250;60316;-68
2023/03/27 10:57:09;;;;;;;3.20;2.00;;;;;;;29.12;20.39;98859.15;108478;1251;72039;-69
2023/03/27 10:59:49;;;;;;;9.20;2.50;;;;;;;29.21;20.28;98858.39;108349;1251;70053;-68
2023/03/27 11:02:42;;;;;;;9.40;3.70;;;;;;;28.81;20.13;98854.11;108336;1251;71887;-68
2023/03/27 11:05:15;;;;;;;5.50;1.70;;;;;;;28.82;20.28;98855.56;108382;1250;61256;-68
2023/03/27 11:07:56;;;;;;;9.70;1.80;;;;;;;29.28;20.25;98857.09;108439;1251;59217;-68
2023/03/27 11:10:41;;;;;;;3.90;2.00;;;;;;;29.62;20.04;98851.62;108172;1251;72583;-68
2023/03/27 11:13:14;;;;;;;4.40;2.20;;;;;;;30.02;19.78;98847.03;108309;1251;68597;-70
2023/03/27 11:15:58;;;;;;;4.80;2.40;;;;;;;29.91;19.49;98845.67;108256;1251;72364;-69
2023/03/27 11:19:02;;;;;;;4.60;2.30;;;;;;;30.30;19.52;98845.17;108014;1251;61301;-67
2023/03/27 11:21:38;;;;;;;3.40;1.60;;;;;;;30.70;18.82;98838.14;108385;1251;60724;-70
2023/03/27 11:24:14;;;;;;;4.20;1.80;;;;;;;30.40;18.77;98844.48;108251;1256;72984;-68
2023/03/27 11:27:09;;;;;;;3.10;1.70;;;;;;;30.35;19.02;98839.93;108275;1251;70124;-70
2023/03/27 11:29:46;;;;;;;3.60;2.00;;;;;;;30.61;18.60;98838.80;108150;1251;73550;-67
2023/03/27 11:32:22;;;;;;;3.90;1.90;;;;;;;30.89;18.35;98832.61;108261;1251;61541;-67
2023/03/27 11:35:01;;;;;;;5.80;2.20;;;;;;;30.67;18.54;98830.83;108252;1251;60354;-68
2023/03/27 11:37:46;;;;;;;3.20;1.80;;;;;;;30.70;18.39;98827.17;108133;1250;74992;-69
2023/03/27 11:40:19;;;;;;;2.60;1.70;;;;;;;29.99;19.01;98829.41;108240;1251;71592;-69
2023/03/27 11:42:47;;;;;;;3.00;1.90;;;;;;;29.62;19.55;98827.61;108186;1251;72649;-69
2023/03/27 11:45:18;;;;;;;5.00;2.20;;;;;;;30.34;19.03;98822.91;108220;1251;59147;-68
2023/03/27 11:48:05;;;;;;;4.50;2.30;;;;;;;29.62;19.45;98824.39;108280;1251;61370;-70
2023/03/27 11:50:52;;;;;;;4.70;2.20;;;;;;;29.65;19.68;98825.06;108234;1251;75014;-70
2023/03/27 11:53:38;;;;;;;12.30;2.50;;;;;;;30.08;19.39;98819.61;108272;1251;71495;-68
2023/03/27 11:56:31;;;;;;;3.20;1.90;;;;;;;30.24;19.39;98817.33;108140;1253;71899;-69
2023/03/27 11:59:28;;;;;;;4.90;1.80;;;;;;;28.63;20.95;98816.39;108132;1253;60374;-69
2023/03/27 12:02:33;;;;;;;6.80;1.90;;;;;;;28.65;20.87;98814.95;108102;1253;61403;-69
2023/03/27 12:05:15;;;;;;;3.50;2.00;;;;;;;28.55;21.19;98813.14;107982;1254;74764;-69
2023/03/27 12:08:06;;;;;;;3.80;1.60;;;;;;;29.32;20.43;98812.08;107936;1253;70259;-69
2023/03/27 12:10:37;;;;;;;3.40;2.00;;;;;;;29.89;20.09;98809.36;108139;1253;73907;-69